createdAt,value
2022-11-30T00:00:09.657Z,16.56
2022-11-30T00:01:09.676Z,16.52
2022-11-30T00:02:09.784Z,16.58
2022-11-30T00:03:09.802Z,16.61
2022-11-30T00:04:09.639Z,16.57
2022-11-30T00:05:09.635Z,16.67
2022-11-30T00:06:09.640Z,16.58
2022-11-30T00:07:09.626Z,16.56
2022-11-30T00:08:09.633Z,16.63
2022-11-30T00:09:09.607Z,16.58
2022-11-30T00:10:09.630Z,16.53
2022-11-30T00:11:09.617Z,16.58
2022-11-30T00:12:09.603Z,16.61
2022-11-30T00:13:09.609Z,16.61
2022-11-30T00:14:09.595Z,16.63
2022-11-30T00:15:09.618Z,16.63
2022-11-30T00:16:09.592Z,16.61
2022-11-30T00:17:09.593Z,16.56
2022-11-30T00:18:09.586Z,16.61
2022-11-30T00:19:09.598Z,16.56
2022-11-30T00:20:09.586Z,16.70
2022-11-30T00:21:09.564Z,16.63
2022-11-30T00:22:09.579Z,16.63
2022-11-30T00:23:09.573Z,16.64
2022-11-30T00:24:09.578Z,16.57
2022-11-30T00:25:09.569Z,16.63
2022-11-30T00:26:09.568Z,16.60
2022-11-30T00:27:09.560Z,16.58
2022-11-30T00:28:09.545Z,16.63
2022-11-30T00:29:09.539Z,16.61
2022-11-30T00:30:09.545Z,16.64
2022-11-30T00:31:09.635Z,16.64
2022-11-30T00:32:09.527Z,16.58
2022-11-30T00:33:09.519Z,16.60
2022-11-30T00:34:09.535Z,16.60
2022-11-30T00:35:09.535Z,16.53
2022-11-30T00:36:09.524Z,16.61
2022-11-30T00:37:09.518Z,16.58
2022-11-30T00:38:09.503Z,16.58
2022-11-30T00:39:09.497Z,16.58
2022-11-30T00:40:09.497Z,16.57
2022-11-30T00:41:09.491Z,16.66
2022-11-30T00:42:09.490Z,16.61
2022-11-30T00:43:09.486Z,16.56
2022-11-30T00:44:09.494Z,16.60
2022-11-30T00:45:09.474Z,16.58
2022-11-30T00:46:09.610Z,16.60
2022-11-30T00:47:09.484Z,16.56
2022-11-30T00:48:09.482Z,16.57
2022-11-30T00:49:09.470Z,16.64
2022-11-30T00:50:09.477Z,16.64
2022-11-30T00:51:09.472Z,16.58
2022-11-30T00:52:09.468Z,16.61
2022-11-30T00:53:09.449Z,16.61
2022-11-30T00:54:09.448Z,16.58
2022-11-30T00:55:09.454Z,16.56
2022-11-30T00:56:09.448Z,16.58
2022-11-30T00:57:09.442Z,16.58
2022-11-30T00:58:09.443Z,16.61
2022-11-30T00:59:09.437Z,16.53
2022-11-30T01:00:09.422Z,16.57
2022-11-30T01:01:09.490Z,16.57
2022-11-30T01:02:09.490Z,16.60
2022-11-30T01:03:09.421Z,16.57
2022-11-30T01:04:09.406Z,16.56
2022-11-30T01:05:09.396Z,16.60
2022-11-30T01:06:09.401Z,16.56
2022-11-30T01:07:09.415Z,16.56
2022-11-30T01:08:09.500Z,16.53
2022-11-30T01:09:09.395Z,16.53
2022-11-30T01:10:09.408Z,16.56
2022-11-30T01:11:09.396Z,16.58
2022-11-30T01:12:09.393Z,16.63
2022-11-30T01:13:09.368Z,16.61
2022-11-30T01:14:09.383Z,16.63
2022-11-30T01:15:09.362Z,16.60
2022-11-30T01:16:09.463Z,16.53
2022-11-30T01:17:09.371Z,16.52
2022-11-30T01:18:09.359Z,16.61
2022-11-30T01:19:09.357Z,16.52
2022-11-30T01:20:09.345Z,16.60
2022-11-30T01:21:09.348Z,16.57
2022-11-30T01:22:09.339Z,16.58
2022-11-30T01:23:09.350Z,16.60
2022-11-30T01:24:09.335Z,16.53
2022-11-30T01:25:09.328Z,16.57
2022-11-30T01:26:09.324Z,16.57
2022-11-30T01:27:09.330Z,16.52
2022-11-30T01:28:09.337Z,16.53
2022-11-30T01:29:09.318Z,16.52
2022-11-30T01:30:09.320Z,16.58
2022-11-30T01:31:09.346Z,16.57
2022-11-30T01:32:09.319Z,16.53
2022-11-30T01:33:09.296Z,16.57
2022-11-30T01:34:09.312Z,16.52
2022-11-30T01:35:09.306Z,16.57
2022-11-30T01:36:09.279Z,16.60
2022-11-30T01:37:09.298Z,16.57
2022-11-30T01:38:09.272Z,16.56
2022-11-30T01:39:09.308Z,16.48
2022-11-30T01:40:09.274Z,16.57
2022-11-30T01:41:09.274Z,16.56
2022-11-30T01:42:09.270Z,16.60
2022-11-30T01:43:09.276Z,16.60
2022-11-30T01:44:09.255Z,16.60
2022-11-30T01:45:09.267Z,16.48
2022-11-30T01:46:09.282Z,16.48
2022-11-30T01:47:09.245Z,16.50
2022-11-30T01:48:09.250Z,16.58
2022-11-30T01:49:09.239Z,16.48
2022-11-30T01:50:09.235Z,16.53
2022-11-30T01:51:09.230Z,16.58
2022-11-30T01:52:09.220Z,16.61
2022-11-30T01:53:09.222Z,16.57
2022-11-30T01:54:09.216Z,16.57
2022-11-30T01:55:09.233Z,16.49
2022-11-30T01:56:09.204Z,16.46
2022-11-30T01:57:09.204Z,16.49
2022-11-30T01:58:09.208Z,16.49
2022-11-30T01:59:09.214Z,16.52
2022-11-30T02:00:09.214Z,16.49
2022-11-30T02:01:09.268Z,16.45
2022-11-30T02:02:09.316Z,16.50
2022-11-30T02:03:09.245Z,16.48
2022-11-30T02:04:09.224Z,16.49
2022-11-30T02:05:09.186Z,16.53
2022-11-30T02:06:09.180Z,16.53
2022-11-30T02:07:09.267Z,16.49
2022-11-30T02:08:09.303Z,16.49
2022-11-30T02:09:09.178Z,16.48
2022-11-30T02:10:09.165Z,16.48
2022-11-30T02:11:09.167Z,16.50
2022-11-30T02:12:09.157Z,16.52
2022-11-30T02:13:09.141Z,16.56
2022-11-30T02:14:09.142Z,16.49
2022-11-30T02:15:09.151Z,16.46
2022-11-30T02:16:09.225Z,16.53
2022-11-30T02:17:09.140Z,16.46
2022-11-30T02:18:09.138Z,16.53
2022-11-30T02:19:09.135Z,16.50
2022-11-30T02:20:09.125Z,16.53
2022-11-30T02:21:09.127Z,16.49
2022-11-30T02:22:09.105Z,16.52
2022-11-30T02:23:09.103Z,16.46
2022-11-30T02:24:09.111Z,16.50
2022-11-30T02:25:09.110Z,16.50
2022-11-30T02:26:09.091Z,16.52
2022-11-30T02:27:09.133Z,16.49
2022-11-30T02:28:09.087Z,16.43
2022-11-30T02:29:09.086Z,16.48
2022-11-30T02:30:09.077Z,16.48
2022-11-30T02:31:09.090Z,16.52
2022-11-30T02:32:09.079Z,16.53
2022-11-30T02:33:09.087Z,16.53
2022-11-30T02:34:09.060Z,16.52
2022-11-30T02:35:09.074Z,16.57
2022-11-30T02:36:09.057Z,16.46
2022-11-30T02:37:09.051Z,16.46
2022-11-30T02:38:09.059Z,16.46
2022-11-30T02:39:09.060Z,16.45
2022-11-30T02:40:09.056Z,16.49
2022-11-30T02:41:09.049Z,16.45
2022-11-30T02:42:09.032Z,16.43
2022-11-30T02:43:09.058Z,16.50
2022-11-30T02:44:09.033Z,16.50
2022-11-30T02:45:09.033Z,16.45
2022-11-30T02:46:09.042Z,16.50
2022-11-30T02:47:09.031Z,16.49
2022-11-30T02:48:09.007Z,16.46
2022-11-30T02:49:09.032Z,16.43
2022-11-30T02:50:09.012Z,16.46
2022-11-30T02:51:09.001Z,16.43
2022-11-30T02:52:09.002Z,16.46
2022-11-30T02:53:09.008Z,16.48
2022-11-30T02:54:08.985Z,16.43
2022-11-30T02:55:08.988Z,16.43
2022-11-30T02:56:08.977Z,16.45
2022-11-30T02:57:08.987Z,16.48
2022-11-30T02:58:08.983Z,16.48
2022-11-30T02:59:08.998Z,16.49
2022-11-30T03:00:08.960Z,16.42
2022-11-30T03:01:09.054Z,16.48
2022-11-30T03:02:08.966Z,16.43
2022-11-30T03:03:09.029Z,16.50
2022-11-30T03:04:08.961Z,16.43
2022-11-30T03:05:08.953Z,16.48
2022-11-30T03:06:08.947Z,16.39
2022-11-30T03:07:08.941Z,16.46
2022-11-30T03:08:08.930Z,16.39
2022-11-30T03:09:08.933Z,16.43
2022-11-30T03:10:08.937Z,16.49
2022-11-30T03:11:09.002Z,16.50
2022-11-30T03:12:08.911Z,16.45
2022-11-30T03:13:08.918Z,16.45
2022-11-30T03:14:08.904Z,16.46
2022-11-30T03:15:08.940Z,16.43
2022-11-30T03:16:08.964Z,16.46
2022-11-30T03:17:08.901Z,16.49
2022-11-30T03:18:08.901Z,16.50
2022-11-30T03:19:08.893Z,16.50
2022-11-30T03:20:08.897Z,16.48
2022-11-30T03:21:08.898Z,16.49
2022-11-30T03:22:08.895Z,16.49
2022-11-30T03:23:08.893Z,16.45
2022-11-30T03:24:08.883Z,16.45
2022-11-30T03:25:08.867Z,16.48
2022-11-30T03:26:08.860Z,16.48
2022-11-30T03:27:08.878Z,16.49
2022-11-30T03:28:08.862Z,16.39
2022-11-30T03:29:08.866Z,16.48
2022-11-30T03:30:08.853Z,16.50
2022-11-30T03:31:08.918Z,16.46
2022-11-30T03:32:08.844Z,16.42
2022-11-30T03:33:08.839Z,16.50
2022-11-30T03:34:08.842Z,16.49
2022-11-30T03:35:08.844Z,16.49
2022-11-30T03:36:08.836Z,16.52
2022-11-30T03:37:08.823Z,16.35
2022-11-30T03:38:08.817Z,16.41
2022-11-30T03:39:08.828Z,16.39
2022-11-30T03:40:08.808Z,16.38
2022-11-30T03:41:08.825Z,16.39
2022-11-30T03:42:08.829Z,16.46
2022-11-30T03:43:08.799Z,16.45
2022-11-30T03:44:08.804Z,16.38
2022-11-30T03:45:08.804Z,16.41
2022-11-30T03:46:08.871Z,16.43
2022-11-30T03:47:08.828Z,16.45
2022-11-30T03:48:08.791Z,16.43
2022-11-30T03:49:08.778Z,16.42
2022-11-30T03:50:08.786Z,16.45
2022-11-30T03:51:08.793Z,16.49
2022-11-30T03:52:08.774Z,16.43
2022-11-30T03:53:08.772Z,16.46
2022-11-30T03:54:08.766Z,16.49
2022-11-30T03:55:08.748Z,16.43
2022-11-30T03:56:08.747Z,16.42
2022-11-30T03:57:08.752Z,16.38
2022-11-30T03:58:08.746Z,16.43
2022-11-30T03:59:08.741Z,16.50
2022-11-30T04:00:08.755Z,16.39
2022-11-30T04:01:08.737Z,16.45
2022-11-30T04:02:08.735Z,16.39
2022-11-30T04:03:08.797Z,16.39
2022-11-30T04:04:08.713Z,16.42
2022-11-30T04:05:08.730Z,16.42
2022-11-30T04:06:08.717Z,16.42
2022-11-30T04:07:08.713Z,16.38
2022-11-30T04:08:08.708Z,16.41
2022-11-30T04:09:08.714Z,16.39
2022-11-30T04:10:08.982Z,16.42
2022-11-30T04:11:08.721Z,16.39
2022-11-30T04:12:08.693Z,16.45
2022-11-30T04:13:08.691Z,16.50
2022-11-30T04:14:08.694Z,16.48
2022-11-30T04:15:08.689Z,16.43
2022-11-30T04:16:08.755Z,16.45
2022-11-30T04:17:08.668Z,16.41
2022-11-30T04:18:08.656Z,16.49
2022-11-30T04:19:08.677Z,16.43
2022-11-30T04:20:08.661Z,16.43
2022-11-30T04:21:08.661Z,16.41
2022-11-30T04:22:08.652Z,16.39
2022-11-30T04:23:08.644Z,16.43
2022-11-30T04:24:08.661Z,16.46
2022-11-30T04:25:08.645Z,16.45
2022-11-30T04:26:08.642Z,16.39
2022-11-30T04:27:08.631Z,16.38
2022-11-30T04:28:08.619Z,16.42
2022-11-30T04:29:08.629Z,16.38
2022-11-30T04:30:08.621Z,16.39
2022-11-30T04:31:08.645Z,16.42
2022-11-30T04:32:08.603Z,16.39
2022-11-30T04:33:08.609Z,16.41
2022-11-30T04:34:08.597Z,16.38
2022-11-30T04:35:08.614Z,16.31
2022-11-30T04:36:08.594Z,16.45
2022-11-30T04:37:08.606Z,16.42
2022-11-30T04:38:08.594Z,16.39
2022-11-30T04:39:08.610Z,16.42
2022-11-30T04:40:08.585Z,16.39
2022-11-30T04:41:08.582Z,16.39
2022-11-30T04:42:08.577Z,16.38
2022-11-30T04:43:08.562Z,16.39
2022-11-30T04:44:08.567Z,16.39
2022-11-30T04:45:08.570Z,16.35
2022-11-30T04:46:08.634Z,16.43
2022-11-30T04:47:08.557Z,16.42
2022-11-30T04:48:08.540Z,16.39
2022-11-30T04:49:08.552Z,16.33
2022-11-30T04:50:08.537Z,16.39
2022-11-30T04:51:08.549Z,16.41
2022-11-30T04:52:08.530Z,16.39
2022-11-30T04:53:08.530Z,16.42
2022-11-30T04:54:08.517Z,16.42
2022-11-30T04:55:08.530Z,16.43
2022-11-30T04:56:08.516Z,16.42
2022-11-30T04:57:08.505Z,16.42
2022-11-30T04:58:08.502Z,16.43
2022-11-30T04:59:08.499Z,16.31
2022-11-30T05:00:08.490Z,16.39
2022-11-30T05:01:08.512Z,16.35
2022-11-30T05:02:08.553Z,16.35
2022-11-30T05:03:08.505Z,16.33
2022-11-30T05:04:08.536Z,16.39
2022-11-30T05:05:08.495Z,16.35
2022-11-30T05:06:08.480Z,16.45
2022-11-30T05:07:08.493Z,16.35
2022-11-30T05:08:08.459Z,16.33
2022-11-30T05:09:08.458Z,16.31
2022-11-30T05:10:08.471Z,16.39
2022-11-30T05:11:08.463Z,16.35
2022-11-30T05:12:08.445Z,16.31
2022-11-30T05:13:08.451Z,16.33
2022-11-30T05:14:08.465Z,16.34
2022-11-30T05:15:08.451Z,16.42
2022-11-30T05:16:08.505Z,16.41
2022-11-30T05:17:08.431Z,16.31
2022-11-30T05:18:08.433Z,16.38
2022-11-30T05:19:08.436Z,16.35
2022-11-30T05:20:08.416Z,16.33
2022-11-30T05:21:08.417Z,16.33
2022-11-30T05:22:08.419Z,16.31
2022-11-30T05:23:08.454Z,16.35
2022-11-30T05:24:08.432Z,16.35
2022-11-30T05:25:08.411Z,16.42
2022-11-30T05:26:08.389Z,16.34
2022-11-30T05:27:14.298Z,16.35
2022-11-30T05:28:08.395Z,16.31
2022-11-30T05:29:08.397Z,16.35
2022-11-30T05:30:08.391Z,16.35
2022-11-30T05:31:08.435Z,16.28
2022-11-30T05:32:08.384Z,16.38
2022-11-30T05:33:08.388Z,16.33
2022-11-30T05:34:08.373Z,16.38
2022-11-30T05:35:08.383Z,16.35
2022-11-30T05:36:10.941Z,16.31
2022-11-30T05:37:08.361Z,16.34
2022-11-30T05:38:08.348Z,16.35
2022-11-30T05:39:08.377Z,16.33
2022-11-30T05:40:08.352Z,16.30
2022-11-30T05:41:08.342Z,16.35
2022-11-30T05:42:08.330Z,16.35
2022-11-30T05:43:08.330Z,16.33
2022-11-30T05:44:08.320Z,16.39
2022-11-30T05:45:08.317Z,16.33
2022-11-30T05:46:08.310Z,16.39
2022-11-30T05:47:08.368Z,16.31
2022-11-30T05:48:08.319Z,16.33
2022-11-30T05:49:08.313Z,16.34
2022-11-30T05:50:08.306Z,16.34
2022-11-30T05:51:08.314Z,16.34
2022-11-30T05:52:08.303Z,16.34
2022-11-30T05:53:08.283Z,16.34
2022-11-30T05:54:08.298Z,16.38
2022-11-30T05:55:08.297Z,16.41
2022-11-30T05:56:08.278Z,16.34
2022-11-30T05:57:08.265Z,16.31
2022-11-30T05:58:08.271Z,16.31
2022-11-30T05:59:08.274Z,16.30
2022-11-30T06:00:08.278Z,16.35
2022-11-30T06:01:08.255Z,16.33
2022-11-30T06:02:08.421Z,16.28
2022-11-30T06:03:08.374Z,16.33
2022-11-30T06:04:08.983Z,16.34
2022-11-30T06:05:08.237Z,16.34
2022-11-30T06:06:08.234Z,16.30
2022-11-30T06:07:08.227Z,16.28
2022-11-30T06:08:08.253Z,16.25
2022-11-30T06:09:08.240Z,16.25
2022-11-30T06:10:08.221Z,16.34
2022-11-30T06:11:08.256Z,16.28
2022-11-30T06:12:08.225Z,16.30
2022-11-30T06:13:08.226Z,16.23
2022-11-30T06:14:08.203Z,16.27
2022-11-30T06:15:08.210Z,16.30
2022-11-30T06:16:08.287Z,16.30
2022-11-30T06:17:08.391Z,16.35
2022-11-30T06:18:08.194Z,16.34
2022-11-30T06:19:08.186Z,16.30
2022-11-30T06:20:08.184Z,16.33
2022-11-30T06:21:08.175Z,16.38
2022-11-30T06:22:08.189Z,16.33
2022-11-30T06:23:08.180Z,16.33
2022-11-30T06:24:08.202Z,16.34
2022-11-30T06:25:08.166Z,16.38
2022-11-30T06:26:08.169Z,16.45
2022-11-30T06:27:08.191Z,16.39
2022-11-30T06:28:08.185Z,16.50
2022-11-30T06:29:08.178Z,16.46
2022-11-30T06:30:08.158Z,16.46
2022-11-30T06:31:08.155Z,16.52
2022-11-30T06:32:08.144Z,16.57
2022-11-30T06:33:08.129Z,16.56
2022-11-30T06:34:08.142Z,16.57
2022-11-30T06:35:08.131Z,16.75
2022-11-30T06:36:08.135Z,16.75
2022-11-30T06:37:08.113Z,16.86
2022-11-30T06:38:08.125Z,16.75
2022-11-30T06:39:08.117Z,16.86
2022-11-30T06:40:08.495Z,16.85
2022-11-30T06:41:08.098Z,16.86
2022-11-30T06:42:08.115Z,16.97
2022-11-30T06:43:08.110Z,16.94
2022-11-30T06:44:08.101Z,17.06
2022-11-30T06:45:08.088Z,17.01
2022-11-30T06:46:08.143Z,17.01
2022-11-30T06:47:08.101Z,17.07
2022-11-30T06:48:08.089Z,17.15
2022-11-30T06:49:08.086Z,17.19
2022-11-30T06:50:08.076Z,17.14
2022-11-30T06:51:08.079Z,17.16
2022-11-30T06:52:08.071Z,17.15
2022-11-30T06:53:08.070Z,17.15
2022-11-30T06:54:08.055Z,17.18
2022-11-30T06:55:08.056Z,17.23
2022-11-30T06:56:10.554Z,17.28
2022-11-30T06:57:08.068Z,17.33
2022-11-30T06:58:08.071Z,17.33
2022-11-30T06:59:08.065Z,17.26
2022-11-30T07:00:08.323Z,17.34
2022-11-30T07:01:08.164Z,17.44
2022-11-30T07:02:11.812Z,17.46
2022-11-30T07:03:08.040Z,17.48
2022-11-30T07:04:08.054Z,17.49
2022-11-30T07:05:08.026Z,17.44
2022-11-30T07:06:08.034Z,17.46
2022-11-30T07:07:08.038Z,17.49
2022-11-30T07:08:08.029Z,17.48
2022-11-30T07:09:08.009Z,17.44
2022-11-30T07:10:08.005Z,17.55
2022-11-30T07:11:08.024Z,17.49
2022-11-30T07:12:08.017Z,17.48
2022-11-30T07:13:08.047Z,17.48
2022-11-30T07:14:08.007Z,17.48
2022-11-30T07:15:08.015Z,17.43
2022-11-30T07:16:08.076Z,17.51
2022-11-30T07:17:08.004Z,17.49
2022-11-30T07:18:07.980Z,17.54
2022-11-30T07:19:07.988Z,17.51
2022-11-30T07:20:07.983Z,17.54
2022-11-30T07:21:07.968Z,17.43
2022-11-30T07:22:07.971Z,17.48
2022-11-30T07:23:07.959Z,17.48
2022-11-30T07:24:07.997Z,17.44
2022-11-30T07:25:07.975Z,17.51
2022-11-30T07:26:07.979Z,17.44
2022-11-30T07:27:07.970Z,17.48
2022-11-30T07:28:07.953Z,17.46
2022-11-30T07:29:07.946Z,17.52
2022-11-30T07:30:07.942Z,17.55
2022-11-30T07:31:12.070Z,17.46
2022-11-30T07:32:07.993Z,17.46
2022-11-30T07:33:07.948Z,17.46
2022-11-30T07:34:07.946Z,17.49
2022-11-30T07:35:07.930Z,17.49
2022-11-30T07:36:07.928Z,17.51
2022-11-30T07:37:07.930Z,17.49
2022-11-30T07:38:09.871Z,17.44
2022-11-30T07:39:07.927Z,17.49
2022-11-30T07:40:08.249Z,17.46
2022-11-30T07:41:08.944Z,17.43
2022-11-30T07:42:07.914Z,17.38
2022-11-30T07:43:07.906Z,17.46
2022-11-30T07:44:07.900Z,17.30
2022-11-30T07:45:07.899Z,17.44
2022-11-30T07:46:07.962Z,17.31
2022-11-30T07:47:07.930Z,17.31
2022-11-30T07:48:07.890Z,17.34
2022-11-30T07:49:07.902Z,17.34
2022-11-30T07:50:07.899Z,17.33
2022-11-30T07:51:07.894Z,17.30
2022-11-30T07:52:07.883Z,17.37
2022-11-30T07:53:07.875Z,17.31
2022-11-30T07:54:07.885Z,17.36
2022-11-30T07:55:07.868Z,17.37
2022-11-30T07:56:07.870Z,17.33
2022-11-30T07:57:07.873Z,17.30
2022-11-30T07:58:09.172Z,17.26
2022-11-30T07:59:07.870Z,17.26
2022-11-30T08:00:07.869Z,17.28
2022-11-30T08:01:07.947Z,17.33
2022-11-30T08:02:07.956Z,17.28
2022-11-30T08:03:07.854Z,17.25
2022-11-30T08:04:07.885Z,17.22
2022-11-30T08:05:07.884Z,17.30
2022-11-30T08:06:07.838Z,17.23
2022-11-30T08:07:07.853Z,17.23
2022-11-30T08:08:07.841Z,17.26
2022-11-30T08:09:07.842Z,17.18
2022-11-30T08:10:07.830Z,17.22
2022-11-30T08:11:07.825Z,17.15
2022-11-30T08:12:07.829Z,17.22
2022-11-30T08:13:07.806Z,17.15
2022-11-30T08:14:07.806Z,17.15
2022-11-30T08:15:27.357Z,17.23
2022-11-30T08:16:07.813Z,17.14
2022-11-30T08:17:07.833Z,17.14
2022-11-30T08:18:07.793Z,17.08
2022-11-30T08:19:07.819Z,17.11
2022-11-30T08:20:07.793Z,17.11
2022-11-30T08:21:07.776Z,17.08
2022-11-30T08:22:07.782Z,17.08
2022-11-30T08:23:07.786Z,17.04
2022-11-30T08:24:07.857Z,17.16
2022-11-30T08:25:07.777Z,17.21
2022-11-30T08:26:07.770Z,17.16
2022-11-30T08:27:07.768Z,17.21
2022-11-30T08:28:07.771Z,17.03
2022-11-30T08:29:07.769Z,17.19
2022-11-30T08:30:07.758Z,17.15
2022-11-30T08:31:07.840Z,17.06
2022-11-30T08:32:07.753Z,17.21
2022-11-30T08:33:07.737Z,17.19
2022-11-30T08:34:07.743Z,17.12
2022-11-30T08:35:07.764Z,17.16
2022-11-30T08:36:07.756Z,17.07
2022-11-30T08:37:07.730Z,17.08
2022-11-30T08:38:07.738Z,17.14
2022-11-30T08:39:07.747Z,17.06
2022-11-30T08:40:07.738Z,17.11
2022-11-30T08:41:07.741Z,17.11
2022-11-30T08:42:07.728Z,17.15
2022-11-30T08:43:07.703Z,17.06
2022-11-30T08:44:07.722Z,17.04
2022-11-30T08:45:07.710Z,17.08
2022-11-30T08:46:27.430Z,17.07
2022-11-30T08:47:07.843Z,17.12
2022-11-30T08:48:07.704Z,17.08
2022-11-30T08:49:20.809Z,17.04
2022-11-30T08:50:07.686Z,17.06
2022-11-30T08:51:07.715Z,17.06
2022-11-30T08:52:16.892Z,17.04
2022-11-30T08:53:07.669Z,17.06
2022-11-30T08:54:07.677Z,17.01
2022-11-30T08:55:07.672Z,17.03
2022-11-30T08:56:07.674Z,17.03
2022-11-30T08:57:07.655Z,17.07
2022-11-30T08:58:07.656Z,16.98
2022-11-30T08:59:07.650Z,16.91
2022-11-30T09:00:07.672Z,17.06
2022-11-30T09:01:07.646Z,16.96
2022-11-30T09:02:07.733Z,16.96
2022-11-30T09:03:07.650Z,16.97
2022-11-30T09:04:07.639Z,17.00
2022-11-30T09:05:07.643Z,16.96
2022-11-30T09:06:07.652Z,16.98
2022-11-30T09:07:07.655Z,16.97
2022-11-30T09:08:07.675Z,16.97
2022-11-30T09:09:07.638Z,16.94
2022-11-30T09:10:07.635Z,16.91
2022-11-30T09:11:07.610Z,16.98
2022-11-30T09:12:07.632Z,16.91
2022-11-30T09:13:07.616Z,16.93
2022-11-30T09:14:07.618Z,16.97
2022-11-30T09:15:07.621Z,16.98
2022-11-30T09:16:07.705Z,16.96
2022-11-30T09:17:07.590Z,16.97
2022-11-30T09:18:07.591Z,16.97
2022-11-30T09:19:07.584Z,16.97
2022-11-30T09:20:07.589Z,16.93
2022-11-30T09:21:07.573Z,16.79
2022-11-30T09:22:07.586Z,16.81
2022-11-30T09:23:07.611Z,16.85
2022-11-30T09:24:07.570Z,16.82
2022-11-30T09:25:07.584Z,16.83
2022-11-30T09:26:07.563Z,16.85
2022-11-30T09:27:07.566Z,16.94
2022-11-30T09:28:12.132Z,16.86
2022-11-30T09:29:07.560Z,16.83
2022-11-30T09:30:07.564Z,16.85
2022-11-30T09:31:07.599Z,16.85
2022-11-30T09:32:07.555Z,16.83
2022-11-30T09:33:07.542Z,16.83
2022-11-30T09:34:07.545Z,16.85
2022-11-30T09:35:12.445Z,16.85
2022-11-30T09:36:07.554Z,16.89
2022-11-30T09:37:07.531Z,16.88
2022-11-30T09:38:07.531Z,16.82
2022-11-30T09:39:07.529Z,16.83
2022-11-30T09:40:07.514Z,16.83
2022-11-30T09:41:07.515Z,16.83
2022-11-30T09:42:07.502Z,16.78
2022-11-30T09:43:07.521Z,16.85
2022-11-30T09:44:07.502Z,16.86
2022-11-30T09:45:07.511Z,16.85
2022-11-30T09:46:07.519Z,16.85
2022-11-30T09:47:07.483Z,16.76
2022-11-30T09:48:07.498Z,16.89
2022-11-30T09:49:07.472Z,16.91
2022-11-30T09:50:07.499Z,16.86
2022-11-30T09:51:07.472Z,16.79
2022-11-30T09:52:07.484Z,16.75
2022-11-30T09:53:07.462Z,16.75
2022-11-30T09:54:07.474Z,16.76
2022-11-30T09:55:07.493Z,16.73
2022-11-30T09:56:07.461Z,16.78
2022-11-30T09:57:07.449Z,16.82
2022-11-30T09:58:07.462Z,16.75
2022-11-30T09:59:07.458Z,16.82
2022-11-30T10:00:07.460Z,16.81
2022-11-30T10:01:07.691Z,16.71
2022-11-30T10:02:07.534Z,16.81
2022-11-30T10:03:07.591Z,16.78
2022-11-30T10:04:07.440Z,16.78
2022-11-30T10:05:07.430Z,16.78
2022-11-30T10:06:07.416Z,16.78
2022-11-30T10:07:07.429Z,16.79
2022-11-30T10:08:07.488Z,16.78
2022-11-30T10:09:07.407Z,16.78
2022-11-30T10:10:34.909Z,16.81
2022-11-30T10:11:07.439Z,16.76
2022-11-30T10:12:07.407Z,16.82
2022-11-30T10:13:07.419Z,16.76
2022-11-30T10:14:07.399Z,16.81
2022-11-30T10:15:07.397Z,16.82
2022-11-30T10:16:07.468Z,16.76
2022-11-30T10:17:07.392Z,16.76
2022-11-30T10:18:07.392Z,16.76
2022-11-30T10:19:07.402Z,16.73
2022-11-30T10:20:07.377Z,16.71
2022-11-30T10:21:07.361Z,16.82
2022-11-30T10:22:07.363Z,16.81
2022-11-30T10:23:07.363Z,16.79
2022-11-30T10:24:07.350Z,16.82
2022-11-30T10:25:11.846Z,16.70
2022-11-30T10:26:07.359Z,16.73
2022-11-30T10:27:07.375Z,16.78
2022-11-30T10:28:24.243Z,16.78
2022-11-30T10:29:07.352Z,16.71
2022-11-30T10:30:07.341Z,16.71
2022-11-30T10:31:07.410Z,16.81
2022-11-30T10:32:07.334Z,16.78
2022-11-30T10:33:07.339Z,16.71
2022-11-30T10:34:07.331Z,16.76
2022-11-30T10:35:07.326Z,16.70
2022-11-30T10:36:07.319Z,16.70
2022-11-30T10:37:07.335Z,16.70
2022-11-30T10:38:07.300Z,16.68
2022-11-30T10:39:11.813Z,16.71
2022-11-30T10:40:07.292Z,16.70
2022-11-30T10:41:07.289Z,16.70
2022-11-30T10:42:07.289Z,16.71
2022-11-30T10:43:07.320Z,16.75
2022-11-30T10:44:07.279Z,16.73
2022-11-30T10:45:07.290Z,16.68
2022-11-30T10:46:09.304Z,16.68
2022-11-30T10:47:07.298Z,16.70
2022-11-30T10:48:07.263Z,16.66
2022-11-30T10:49:07.265Z,16.71
2022-11-30T10:50:07.272Z,16.68
2022-11-30T10:51:07.253Z,16.71
2022-11-30T10:52:07.260Z,16.75
2022-11-30T10:53:07.246Z,16.75
2022-11-30T10:54:07.271Z,16.70
2022-11-30T10:55:07.254Z,16.75
2022-11-30T10:56:07.239Z,16.70
2022-11-30T10:57:07.239Z,16.75
2022-11-30T10:58:07.228Z,16.70
2022-11-30T10:59:07.266Z,16.63
2022-11-30T11:00:07.217Z,16.70
2022-11-30T11:01:07.312Z,16.75
2022-11-30T11:02:07.278Z,16.71
2022-11-30T11:03:07.291Z,16.70
2022-11-30T11:04:07.275Z,16.71
2022-11-30T11:05:07.203Z,16.58
2022-11-30T11:06:07.194Z,16.75
2022-11-30T11:07:07.291Z,16.63
2022-11-30T11:08:07.703Z,16.63
2022-11-30T11:09:07.194Z,16.57
2022-11-30T11:10:07.192Z,16.60
2022-11-30T11:11:07.195Z,16.56
2022-11-30T11:12:07.175Z,16.70
2022-11-30T11:13:07.182Z,16.67
2022-11-30T11:14:07.169Z,16.58
2022-11-30T11:15:07.188Z,16.57
2022-11-30T11:16:07.258Z,16.60
2022-11-30T11:17:07.164Z,16.67
2022-11-30T11:18:07.154Z,16.60
2022-11-30T11:19:07.153Z,16.67
2022-11-30T11:20:07.144Z,16.58
2022-11-30T11:21:07.406Z,16.60
2022-11-30T11:22:07.135Z,16.60
2022-11-30T11:23:07.158Z,16.58
2022-11-30T11:24:07.144Z,16.63
2022-11-30T11:25:07.145Z,16.58
2022-11-30T11:26:07.138Z,16.60
2022-11-30T11:27:07.126Z,16.57
2022-11-30T11:28:07.118Z,16.57
2022-11-30T11:29:07.118Z,16.53
2022-11-30T11:30:07.106Z,16.64
2022-11-30T11:31:07.139Z,16.63
2022-11-30T11:32:07.116Z,16.60
2022-11-30T11:33:07.099Z,16.61
2022-11-30T11:34:07.090Z,16.61
2022-11-30T11:35:07.105Z,16.58
2022-11-30T11:36:07.098Z,16.57
2022-11-30T11:37:07.101Z,16.64
2022-11-30T11:38:07.095Z,16.63
2022-11-30T11:39:07.097Z,16.58
2022-11-30T11:40:07.092Z,16.56
2022-11-30T11:41:07.082Z,16.57
2022-11-30T11:42:07.081Z,16.64
2022-11-30T11:43:07.077Z,16.60
2022-11-30T11:44:07.072Z,16.60
2022-11-30T11:45:07.059Z,16.60
2022-11-30T11:46:07.086Z,16.58
2022-11-30T11:47:07.084Z,16.57
2022-11-30T11:48:07.041Z,16.57
2022-11-30T11:49:07.039Z,16.56
2022-11-30T11:50:07.049Z,16.58
2022-11-30T11:51:08.297Z,16.58
2022-11-30T11:52:07.040Z,16.57
2022-11-30T11:53:07.066Z,16.56
2022-11-30T11:54:07.143Z,16.60
2022-11-30T11:55:07.017Z,16.60
2022-11-30T11:56:07.028Z,16.60
2022-11-30T11:57:07.035Z,16.57
2022-11-30T11:58:07.016Z,16.61
2022-11-30T11:59:07.003Z,16.57
2022-11-30T12:00:15.645Z,16.61
2022-11-30T12:01:38.257Z,16.58
2022-11-30T12:02:07.002Z,16.60
2022-11-30T12:03:07.080Z,16.53
2022-11-30T12:04:07.041Z,16.60
2022-11-30T12:05:06.993Z,16.53
2022-11-30T12:06:06.987Z,16.53
2022-11-30T12:07:06.986Z,16.57
2022-11-30T12:08:07.023Z,16.57
2022-11-30T12:09:06.965Z,16.52
2022-11-30T12:10:21.812Z,16.58
2022-11-30T12:11:06.977Z,16.57
2022-11-30T12:12:06.950Z,16.48
2022-11-30T12:13:06.950Z,16.52
2022-11-30T12:14:06.952Z,16.50
2022-11-30T12:15:06.956Z,16.48
2022-11-30T12:16:06.964Z,16.57
2022-11-30T12:17:06.948Z,16.52
2022-11-30T12:18:13.750Z,16.53
2022-11-30T12:19:06.958Z,16.56
2022-11-30T12:20:06.935Z,16.53
2022-11-30T12:21:06.924Z,16.53
2022-11-30T12:22:06.912Z,16.48
2022-11-30T12:23:06.915Z,16.48
2022-11-30T12:24:06.918Z,16.53
2022-11-30T12:25:06.918Z,16.53
2022-11-30T12:26:06.915Z,16.56
2022-11-30T12:27:06.896Z,16.53
2022-11-30T12:28:06.901Z,16.49
2022-11-30T12:29:06.901Z,16.52
2022-11-30T12:30:06.898Z,16.56
2022-11-30T12:31:06.932Z,16.56
2022-11-30T12:32:06.895Z,16.58
2022-11-30T12:33:06.886Z,16.57
2022-11-30T12:34:06.876Z,16.56
2022-11-30T12:35:06.905Z,16.56
2022-11-30T12:36:06.872Z,16.57
2022-11-30T12:37:06.885Z,16.53
2022-11-30T12:38:06.850Z,16.50
2022-11-30T12:39:06.855Z,16.56
2022-11-30T12:40:06.847Z,16.52
2022-11-30T12:41:06.856Z,16.52
2022-11-30T12:42:06.849Z,16.50
2022-11-30T12:43:06.837Z,16.48
2022-11-30T12:44:06.834Z,16.43
2022-11-30T12:45:06.850Z,16.60
2022-11-30T12:46:06.885Z,16.52
2022-11-30T12:47:06.837Z,16.52
2022-11-30T12:48:06.825Z,16.52
2022-11-30T12:49:06.933Z,16.49
2022-11-30T12:50:06.823Z,16.43
2022-11-30T12:51:06.824Z,16.50
2022-11-30T12:52:06.814Z,16.52